Birmingham, Michigan
Current Conditions -  °F | °C
As of 3:35 AM on Friday 31 Oct 2014 (Local Time) from KVLL Reporting Station
Overcast Overcast  
Wind Chill: 44°   Ceiling: 3900
Heat Index: 46°   Visibility: 10mi
Dew Point: 35°   Wind: 6mph
Humidity: 64%   Direction: 210°SSW
Pressure: 29.96"   Gusts: NA
Location:  42.55°N, 83.21°W
Report Text: KVLL 310735Z AUTO 21005KT 10SM BKN039 OVC047 08/02 A2996 RMK AO2 T00800015
Loading
Personal Weather Stations






























Interactive Weather Map
Tropical Storm Tracking
New forecast layout! Learn more

10-Day Weather Forecast

Advertisements
Track Severe Weather on mobile